Time;durP1;ratioP1;P1;durP2;ratioP2;P2;SDS_P1;SDS_P2;PMS_P1;PMS_P2;Temp;Humidity;BMP_temperature;BMP_pressure;BME280_temperature;BME280_humidity;BME280_pressure;Samples;Min_cycle;Max_cycle;Signal;HPM_P1;HPM_P2
2024/04/22 00:14:45;;;;;;;6.20;5.10;;;;;;;5.08;67.70;100791.09;667770;1267;138840;-80
2024/04/22 00:29:48;;;;;;;13.90;6.50;;;;;;;5.10;68.63;100785.40;667674;1262;138593;-80
2024/04/22 00:44:51;;;;;;;9.50;2.70;;;;;;;5.09;68.97;100771.07;667055;1273;139417;-78
2024/04/22 00:59:54;;;;;;;9.50;4.50;;;;;;;5.05;69.45;100754.83;665924;1262;138582;-79
2024/04/22 01:14:57;;;;;;;8.80;5.40;;;;;;;4.99;69.88;100735.60;667019;1263;138528;-79
2024/04/22 01:30:02;;;;;;;7.00;5.00;;;;;;;5.01;70.46;100721.06;668553;1263;138496;-79
2024/04/22 01:45:07;;;;;;;17.90;6.40;;;;;;;4.95;71.08;100715.36;667306;1263;138591;-80
2024/04/22 02:00:10;;;;;;;6.20;4.60;;;;;;;4.99;71.39;100720.52;666999;1261;163281;-78
2024/04/22 02:15:14;;;;;;;15.40;7.00;;;;;;;4.96;71.80;100713.74;666633;1273;138583;-79
2024/04/22 02:30:17;;;;;;;6.40;3.20;;;;;;;4.99;71.83;100703.35;667700;1262;138483;-80
2024/04/22 02:45:21;;;;;;;6.10;4.00;;;;;;;4.97;71.55;100694.58;668433;1273;138873;-80
2024/04/22 03:00:25;;;;;;;8.70;4.10;;;;;;;4.90;71.09;100669.35;669290;1262;138617;-80
2024/04/22 03:15:28;;;;;;;10.90;6.00;;;;;;;4.78;70.74;100668.48;668969;1274;140068;-80
2024/04/22 03:30:32;;;;;;;15.70;6.50;;;;;;;4.80;70.52;100684.32;668239;1258;139234;-81
2024/04/22 03:45:35;;;;;;;9.90;5.10;;;;;;;4.76;70.83;100670.88;669246;1263;139296;-78
2024/04/22 04:00:38;;;;;;;7.50;4.20;;;;;;;4.72;70.51;100669.39;669531;1259;138380;-78
2024/04/22 04:15:41;;;;;;;23.70;11.90;;;;;;;4.75;70.79;100680.59;665737;1262;138728;-77
2024/04/22 04:31:01;;;;;;;10.10;5.10;;;;;;;4.79;69.92;100694.05;667317;1262;139064;-79
2024/04/22 04:46:04;;;;;;;7.40;6.60;;;;;;;4.83;69.82;100691.63;665560;1264;138617;-78
2024/04/22 05:01:08;;;;;;;16.50;8.00;;;;;;;4.92;69.45;100692.64;665815;1260;138707;-80
2024/04/22 05:16:11;;;;;;;11.30;4.50;;;;;;;5.05;69.03;100693.30;667251;1259;138932;-79
2024/04/22 05:31:15;;;;;;;10.30;5.90;;;;;;;5.07;69.94;100695.26;668371;1262;138646;-80
2024/04/22 05:46:18;;;;;;;13.90;8.00;;;;;;;5.16;70.39;100696.44;665925;1263;139235;-79
2024/04/22 06:01:22;;;;;;;22.40;12.10;;;;;;;5.55;70.01;100690.66;664227;1262;139334;-79
2024/04/22 06:16:27;;;;;;;9.10;5.90;;;;;;;5.84;69.61;100675.95;665289;1262;140507;-79
2024/04/22 06:31:31;;;;;;;4.80;4.10;;;;;;;6.33;68.68;100677.23;667174;1273;139241;-78
2024/04/22 06:46:34;;;;;;;25.70;11.90;;;;;;;6.40;67.91;100681.83;668225;1260;139247;-79
2024/04/22 07:01:38;;;;;;;12.40;9.50;;;;;;;6.69;67.32;100681.30;665160;1263;139675;-79
2024/04/22 07:16:52;;;;;;;28.60;19.50;;;;;;;6.57;67.48;100677.08;665615;1263;139404;-79
2024/04/22 07:31:56;;;;;;;34.70;17.00;;;;;;;6.17;68.49;100688.27;669211;1263;139812;-80
2024/04/22 07:46:59;;;;;;;34.90;14.50;;;;;;;6.19;68.86;100682.64;667886;1261;140273;-80
2024/04/22 08:02:03;;;;;;;17.90;10.10;;;;;;;6.67;69.60;100684.77;667798;1262;138881;-79
2024/04/22 08:17:07;;;;;;;9.70;6.90;;;;;;;7.10;69.34;100685.42;666903;1276;139348;-81
2024/04/22 08:32:11;;;;;;;6.80;6.10;;;;;;;8.66;68.68;100671.85;668065;1263;139303;-79
2024/04/22 08:47:14;;;;;;;7.90;5.00;;;;;;;9.50;65.87;100655.52;666695;1262;138803;-78
2024/04/22 09:02:18;;;;;;;8.60;4.10;;;;;;;9.29;63.81;100655.20;667740;1262;139253;-79
2024/04/22 09:17:21;;;;;;;4.80;4.20;;;;;;;9.49;61.35;100658.58;667713;1259;139331;-80
2024/04/22 09:32:29;;;;;;;6.90;4.80;;;;;;;9.39;59.61;100669.99;666076;1262;141287;-79
2024/04/22 09:47:33;;;;;;;9.20;5.40;;;;;;;9.02;59.66;100685.65;666346;1262;139874;-80
2024/04/22 10:02:37;;;;;;;26.80;14.50;;;;;;;8.81;60.46;100692.33;665633;1261;138814;-79
2024/04/22 10:17:43;;;;;;;21.60;8.80;;;;;;;8.89;59.77;100695.17;667634;1273;139559;-80
2024/04/22 10:32:46;;;;;;;26.30;11.60;;;;;;;9.06;59.02;100700.73;665384;1275;139113;-79
2024/04/22 10:47:52;;;;;;;26.50;9.50;;;;;;;8.91;58.37;100710.73;666616;1259;138961;-80
2024/04/22 11:03:14;;;;;;;35.50;17.80;;;;;;;8.81;57.70;100726.98;667104;1263;138823;-81
2024/04/22 11:18:19;;;;;;;8.50;4.90;;;;;;;9.05;56.95;100730.79;667920;1262;139034;-79
2024/04/22 11:33:23;;;;;;;270.10;92.20;;;;;;;9.53;56.13;100737.33;668414;1262;138983;-81
2024/04/22 11:48:26;;;;;;;199.40;57.60;;;;;;;10.07;55.20;100739.46;674747;1262;138487;-79
2024/04/22 12:03:30;;;;;;;201.60;73.70;;;;;;;9.57;56.02;100746.34;670575;1262;139038;-79
2024/04/22 12:18:33;;;;;;;39.60;21.90;;;;;;;9.23;56.65;100749.70;672924;1273;139366;-79
2024/04/22 12:33:37;;;;;;;20.40;9.90;;;;;;;8.70;56.26;100755.04;674423;1273;139290;-78
2024/04/22 13:04:14;;;;;;;10.70;6.20;;;;;;;9.18;56.26;100744.71;672782;1262;138663;-79
2024/04/22 13:19:17;;;;;;;7.60;5.70;;;;;;;9.96;55.39;100742.39;674081;1273;139299;-78
2024/04/22 13:34:20;;;;;;;8.80;4.30;;;;;;;10.01;54.76;100750.28;676303;1260;138407;-77
2024/04/22 13:49:24;;;;;;;7.50;4.80;;;;;;;9.40;54.71;100764.87;677300;1272;138467;-79
2024/04/22 14:04:27;;;;;;;7.60;4.20;;;;;;;8.96;55.04;100771.23;674403;1263;176219;-78
2024/04/22 14:19:30;;;;;;;27.30;12.80;;;;;;;8.96;55.93;100770.05;678673;1262;138193;-79
2024/04/22 14:34:34;;;;;;;16.80;7.60;;;;;;;8.80;57.09;100778.17;674964;1263;138881;-79
2024/04/22 14:49:37;;;;;;;10.80;6.80;;;;;;;8.48;58.12;100787.05;674379;1273;138822;-79
2024/04/22 15:04:40;;;;;;;25.70;10.40;;;;;;;8.01;59.28;100794.87;669985;1262;141935;-79
2024/04/22 15:19:44;;;;;;;38.50;13.50;;;;;;;7.79;60.72;100802.27;671518;1263;138648;-80
2024/04/22 15:34:47;;;;;;;29.80;12.20;;;;;;;7.69;62.48;100804.50;668294;1261;139086;-77
2024/04/22 15:49:50;;;;;;;19.80;10.10;;;;;;;7.87;63.24;100803.98;669513;1267;140010;-77
2024/04/22 16:04:54;;;;;;;32.70;13.50;;;;;;;7.97;63.78;100801.20;670264;1271;140964;-78
2024/04/22 16:19:57;;;;;;;22.90;12.40;;;;;;;7.85;64.15;100801.90;674210;1263;139552;-79
2024/04/22 16:35:00;;;;;;;42.20;18.50;;;;;;;7.69;64.86;100805.93;670801;1262;140664;-79
2024/04/22 16:50:03;;;;;;;21.50;11.50;;;;;;;7.78;64.94;100819.77;670788;1263;141394;-79
2024/04/22 17:05:07;;;;;;;31.90;14.10;;;;;;;7.36;65.66;100824.45;671021;1263;140274;-78
2024/04/22 17:20:11;;;;;;;26.00;12.20;;;;;;;7.24;66.44;100837.95;672760;1263;139985;-78
2024/04/22 17:35:14;;;;;;;31.50;15.70;;;;;;;7.21;67.13;100847.71;674329;1263;139256;-78
2024/04/22 17:50:17;;;;;;;45.90;20.30;;;;;;;7.12;67.63;100853.86;671668;1263;139169;-78
2024/04/22 18:05:20;;;;;;;27.40;12.20;;;;;;;7.06;67.72;100864.46;669140;1263;140095;-78
2024/04/22 18:20:25;;;;;;;22.10;10.60;;;;;;;6.91;68.64;100883.88;672675;1260;140876;-79
2024/04/22 18:35:29;;;;;;;24.90;12.60;;;;;;;6.72;69.52;100905.42;672176;1263;139762;-80
2024/04/22 18:50:33;;;;;;;184.10;60.30;;;;;;;6.43;70.83;100911.52;672315;1263;139552;-79
2024/04/22 19:05:36;;;;;;;33.10;17.20;;;;;;;6.33;71.67;100918.55;672656;1262;139877;-79
2024/04/22 19:20:40;;;;;;;28.30;18.00;;;;;;;6.18;72.10;100922.72;670156;1262;139979;-79
2024/04/22 19:35:48;;;;;;;26.30;12.20;;;;;;;6.19;72.73;100918.83;667396;1271;140264;-79
2024/04/22 19:50:52;;;;;;;26.80;14.30;;;;;;;6.10;73.02;100918.84;666598;1262;140027;-79
2024/04/22 20:05:55;;;;;;;32.00;21.60;;;;;;;5.93;73.65;100912.33;667355;1261;139723;-80
2024/04/22 20:20:59;;;;;;;20.00;10.60;;;;;;;5.82;74.50;100914.89;666921;1261;140839;-80
2024/04/22 20:36:03;;;;;;;29.00;18.30;;;;;;;5.57;75.80;100926.89;666710;1259;139734;-78
2024/04/22 20:51:07;;;;;;;22.60;11.70;;;;;;;5.55;76.31;100938.27;666744;1258;140104;-80
2024/04/22 21:06:11;;;;;;;34.60;14.90;;;;;;;5.49;76.51;100940.86;670375;1260;142245;-80
2024/04/22 21:21:14;;;;;;;16.40;13.80;;;;;;;5.19;77.82;100943.59;670292;1262;139028;-80
2024/04/22 21:36:16;;;;;;;48.60;16.60;;;;;;;4.67;79.64;100938.73;671670;1263;140935;-80
2024/04/22 21:51:19;;;;;;;17.30;11.00;;;;;;;4.81;79.83;100946.33;670709;1259;140022;-79
2024/04/22 22:07:00;;;;;;;19.00;9.70;;;;;;;4.69;80.35;100946.95;676000;1266;139800;-79
2024/04/22 22:22:04;;;;;;;16.70;9.40;;;;;;;4.72;80.14;100940.75;669901;1273;140260;-81
2024/04/22 22:37:07;;;;;;;13.60;8.80;;;;;;;4.77;80.50;100947.89;670371;1263;139124;-79
2024/04/22 22:52:10;;;;;;;11.60;7.10;;;;;;;4.50;82.36;100944.80;667758;1272;139236;-79
2024/04/22 23:18:43;;;;;;;12.40;5.60;;;;;;;4.51;83.14;100942.85;649089;1301;545068;-79
2024/04/22 23:33:46;;;;;;;12.70;7.40;;;;;;;4.50;82.85;100928.03;663972;1272;138988;-79
2024/04/22 23:48:49;;;;;;;10.60;7.90;;;;;;;4.37;82.71;100921.45;663827;1274;138093;-79
